Time;durP1;ratioP1;P1;durP2;ratioP2;P2;SDS_P1;SDS_P2;PMS_P1;PMS_P2;Temp;Humidity;BMP_temperature;BMP_pressure;BME280_temperature;BME280_humidity;BME280_pressure;Samples;Min_cycle;Max_cycle;Signal;HPM_P1;HPM_P2
2021/08/17 00:00:06;;;;;;;12.60;7.85;;;;;;;17.35;81.17;95146.64;1795533;80;21368;-59
2021/08/17 00:02:35;;;;;;;10.65;7.72;;;;;;;17.36;81.18;95136.39;1795204;80;21022;-59
2021/08/17 00:05:03;;;;;;;10.72;7.72;;;;;;;17.36;81.18;95136.39;1795460;80;21460;-59
2021/08/17 00:07:31;;;;;;;11.35;7.42;;;;;;;17.24;81.08;95134.36;1795305;80;21046;-59
2021/08/17 00:09:57;;;;;;;8.38;7.25;;;;;;;17.18;81.32;95134.19;1795399;80;21097;-59
2021/08/17 00:12:24;;;;;;;10.60;7.78;;;;;;;17.16;81.32;95120.09;1795531;80;21003;-59
2021/08/17 00:14:51;;;;;;;9.20;7.90;;;;;;;17.15;81.00;95126.35;1795682;80;20991;-59
2021/08/17 00:17:17;;;;;;;8.80;7.87;;;;;;;17.11;81.19;95126.14;1795242;80;21078;-59
2021/08/17 00:19:46;;;;;;;14.60;7.80;;;;;;;17.04;81.62;95134.05;1795509;80;20986;-59
2021/08/17 00:22:14;;;;;;;12.58;7.25;;;;;;;17.09;81.30;95129.35;1786874;80;21058;-59
2021/08/17 00:24:41;;;;;;;9.00;7.25;;;;;;;17.11;81.18;95120.81;1786718;80;21011;-59
2021/08/17 00:27:07;;;;;;;12.40;7.75;;;;;;;17.11;81.28;95118.14;1787061;80;21078;-59
2021/08/17 00:29:34;;;;;;;8.93;7.58;;;;;;;17.19;81.08;95119.08;1787051;80;21007;-59
2021/08/17 00:32:00;;;;;;;14.05;7.45;;;;;;;17.21;80.59;95125.16;1787125;80;20991;-59
2021/08/17 00:34:27;;;;;;;9.05;7.10;;;;;;;17.20;80.42;95116.78;1786715;80;21018;-60
2021/08/17 00:36:53;;;;;;;11.53;6.97;;;;;;;17.11;80.66;95115.48;1787192;80;21003;-59
2021/08/17 00:39:20;;;;;;;11.90;7.25;;;;;;;17.04;80.25;95119.39;1779612;80;21050;-59
2021/08/17 00:41:47;;;;;;;8.85;7.80;;;;;;;16.96;81.02;95132.23;1787087;80;21026;-59
2021/08/17 00:44:27;;;;;;;8.65;7.10;;;;;;;16.87;80.79;95135.77;1786898;80;21003;-59
2021/08/17 00:46:56;;;;;;;11.33;7.10;;;;;;;16.91;80.68;95129.83;1787032;80;21011;-59
2021/08/17 00:49:24;;;;;;;14.00;7.78;;;;;;;16.85;80.64;95132.78;1786924;80;20959;-59
2021/08/17 00:51:55;;;;;;;14.43;7.30;;;;;;;16.89;80.99;95129.52;1786718;80;20983;-59
2021/08/17 00:54:22;;;;;;;7.92;6.50;;;;;;;16.90;80.68;95125.41;1787091;80;21007;-59
2021/08/17 00:56:49;;;;;;;8.05;7.10;;;;;;;16.79;80.43;95128.63;1786892;80;21095;-59
2021/08/17 00:59:16;;;;;;;9.13;6.47;;;;;;;16.74;80.50;95124.45;1787135;80;21061;-59
2021/08/17 01:01:43;;;;;;;9.05;7.50;;;;;;;16.64;81.39;95122.71;1787027;80;20971;-59
2021/08/17 01:04:10;;;;;;;8.15;6.55;;;;;;;16.62;81.90;95119.25;1754292;80;21014;-59
2021/08/17 01:06:38;;;;;;;8.48;6.95;;;;;;;16.63;81.01;95116.53;1787032;80;21002;-59
2021/08/17 01:09:06;;;;;;;8.75;7.28;;;;;;;16.61;81.35;95117.55;1787346;80;21043;-59
2021/08/17 01:11:33;;;;;;;9.23;7.40;;;;;;;16.54;81.05;95112.12;1786556;80;21505;-59
2021/08/17 01:13:59;;;;;;;8.88;7.62;;;;;;;16.55;81.42;95111.17;1787113;80;21007;-59
2021/08/17 01:16:26;;;;;;;11.80;7.12;;;;;;;16.55;81.01;95113.36;1787002;80;21034;-59
2021/08/17 01:18:52;;;;;;;9.85;7.35;;;;;;;16.61;81.16;95111.73;1787027;80;21552;-59
2021/08/17 01:21:19;;;;;;;12.13;7.05;;;;;;;16.60;81.14;95117.13;1787076;80;21079;-59
2021/08/17 01:23:46;;;;;;;8.65;7.10;;;;;;;16.52;81.04;95114.84;1786849;80;20964;-59
2021/08/17 01:26:13;;;;;;;11.38;7.45;;;;;;;16.51;81.25;95109.14;1786668;80;21063;-59
2021/08/17 01:28:40;;;;;;;12.23;7.47;;;;;;;16.47;80.87;95111.55;1787195;80;20972;-59
2021/08/17 01:31:08;;;;;;;8.90;7.70;;;;;;;16.49;81.06;95111.02;1787050;80;21449;-59
2021/08/17 01:33:36;;;;;;;9.35;7.20;;;;;;;16.53;80.67;95111.71;1787095;80;21034;-59
2021/08/17 01:36:04;;;;;;;7.97;6.85;;;;;;;16.54;80.34;95113.45;1787102;80;20991;-59
2021/08/17 01:38:31;;;;;;;7.75;6.80;;;;;;;16.46;80.95;95113.84;1787003;80;21011;-59
2021/08/17 01:40:58;;;;;;;9.75;7.97;;;;;;;16.44;80.63;95113.89;1786916;80;21019;-59
2021/08/17 01:43:24;;;;;;;7.95;5.92;;;;;;;16.54;80.54;95106.32;1787089;80;20992;-59
2021/08/17 01:45:59;;;;;;;9.08;6.33;;;;;;;16.49;80.75;95098.17;1786788;80;21014;-59
2021/08/17 01:48:31;;;;;;;9.48;7.00;;;;;;;16.39;81.18;95101.28;1787197;80;21011;-59
2021/08/17 01:50:59;;;;;;;9.10;7.17;;;;;;;16.37;81.47;95101.81;1787114;80;21019;-59
2021/08/17 01:53:27;;;;;;;8.88;7.83;;;;;;;16.34;81.81;95100.64;1787290;80;20983;-59
2021/08/17 01:55:55;;;;;;;16.30;6.92;;;;;;;16.40;82.47;95107.02;1786823;80;21003;-58
2021/08/17 01:58:26;;;;;;;10.13;6.83;;;;;;;16.47;82.13;95100.90;1787347;80;21015;-59
2021/08/17 02:00:54;;;;;;;10.40;7.03;;;;;;;16.52;82.11;95094.88;1787389;80;21014;-59
2021/08/17 02:03:20;;;;;;;9.73;6.85;;;;;;;16.60;81.89;95089.16;1787303;80;21461;-59
2021/08/17 02:05:46;;;;;;;9.10;6.92;;;;;;;16.65;81.95;95085.80;1787218;80;20965;-59
2021/08/17 02:08:13;;;;;;;9.23;7.45;;;;;;;16.64;82.14;95084.09;1787142;80;20987;-59
2021/08/17 02:10:40;;;;;;;11.33;7.50;;;;;;;16.71;81.51;95074.00;1786763;80;21067;-59
2021/08/17 02:13:07;;;;;;;9.38;6.55;;;;;;;16.76;81.73;95068.81;1787197;80;20983;-59
2021/08/17 02:15:33;;;;;;;14.47;6.95;;;;;;;16.81;81.37;95065.95;1787164;80;20960;-59
2021/08/17 02:18:00;;;;;;;11.43;6.92;;;;;;;16.80;82.12;95062.87;1787469;80;21006;-59
2021/08/17 02:20:27;;;;;;;8.15;6.80;;;;;;;16.80;82.30;95061.55;1786794;80;21011;-59
2021/08/17 02:22:53;;;;;;;10.43;7.42;;;;;;;16.88;82.46;95058.01;1787290;80;20968;-59
2021/08/17 02:25:20;;;;;;;7.60;6.80;;;;;;;16.92;82.03;95062.25;1787027;80;20987;-59
2021/08/17 02:27:47;;;;;;;10.38;7.05;;;;;;;16.94;81.68;95063.52;1786803;80;20975;-59
2021/08/17 02:30:14;;;;;;;7.92;7.12;;;;;;;16.87;82.05;95057.62;1787376;80;20981;-59
2021/08/17 02:32:41;;;;;;;8.18;7.22;;;;;;;16.92;82.07;95057.39;1787242;80;20991;-59
2021/08/17 02:35:08;;;;;;;10.90;6.45;;;;;;;16.90;82.19;95051.28;1787245;80;20975;-59
2021/08/17 02:37:35;;;;;;;17.07;7.37;;;;;;;16.97;82.05;95042.88;1786988;80;21062;-59
2021/08/17 02:40:05;;;;;;;7.83;6.75;;;;;;;17.02;81.70;95042.65;1787033;80;20990;-59
2021/08/17 02:42:33;;;;;;;7.60;6.90;;;;;;;17.00;81.36;95041.38;1787214;80;20999;-58
2021/08/17 02:45:01;;;;;;;9.68;7.05;;;;;;;16.92;82.25;95047.59;1787186;80;21556;-59
2021/08/17 02:47:28;;;;;;;12.40;7.00;;;;;;;16.97;81.78;95046.03;1786922;80;21011;-59
2021/08/17 02:49:55;;;;;;;9.68;6.67;;;;;;;17.05;81.62;95047.81;1787060;80;21524;-59
2021/08/17 02:52:22;;;;;;;10.60;6.92;;;;;;;17.12;81.23;95045.69;1786887;80;21007;-59
2021/08/17 02:54:50;;;;;;;8.90;7.05;;;;;;;17.05;80.48;95050.00;1786988;80;21587;-59
2021/08/17 02:57:19;;;;;;;11.28;6.87;;;;;;;16.89;81.07;95049.57;1787019;80;20993;-59
2021/08/17 02:59:46;;;;;;;7.40;6.62;;;;;;;16.89;81.07;95049.57;1787140;80;21002;-59
2021/08/17 03:02:13;;;;;;;11.30;7.58;;;;;;;16.84;81.01;95047.14;1786703;80;21066;-58
2021/08/17 03:04:40;;;;;;;9.60;8.35;;;;;;;16.78;80.88;95046.99;1787122;80;21003;-59
2021/08/17 03:07:07;;;;;;;10.55;8.50;;;;;;;16.84;81.37;95044.00;1787005;80;21050;-59
2021/08/17 03:09:34;;;;;;;9.58;7.35;;;;;;;16.87;81.11;95055.82;1786914;80;20999;-59
2021/08/17 03:12:00;;;;;;;11.33;8.25;;;;;;;16.83;81.30;95050.72;1787041;80;21003;-59
2021/08/17 03:14:27;;;;;;;12.90;10.08;;;;;;;16.70;82.03;95045.61;1787237;80;20995;-59
2021/08/17 03:16:53;;;;;;;10.23;7.95;;;;;;;16.61;81.83;95042.48;1787116;80;21011;-59
2021/08/17 03:19:20;;;;;;;12.68;10.65;;;;;;;16.61;81.83;95042.48;1787392;80;21002;-59
2021/08/17 03:21:46;;;;;;;14.53;8.30;;;;;;;16.56;82.06;95029.88;1787315;80;21050;-59
2021/08/17 03:24:13;;;;;;;11.28;9.53;;;;;;;16.56;82.06;95029.88;1787057;80;20999;-59
2021/08/17 03:26:39;;;;;;;10.45;9.45;;;;;;;16.55;82.50;95042.78;1787110;80;20998;-59
2021/08/17 03:29:06;;;;;;;10.23;8.50;;;;;;;16.47;82.32;95046.31;1787200;80;21505;-59
2021/08/17 03:31:32;;;;;;;11.22;9.00;;;;;;;16.47;82.40;95047.64;1787069;80;20976;-59
2021/08/17 03:33:59;;;;;;;10.35;9.08;;;;;;;16.45;82.67;95049.52;1786879;80;21026;-59
2021/08/17 03:36:26;;;;;;;8.90;7.72;;;;;;;16.40;82.36;95037.79;1787103;80;21075;-59
2021/08/17 03:38:52;;;;;;;12.07;8.48;;;;;;;16.45;82.45;95038.86;1787156;80;21007;-59
2021/08/17 03:41:19;;;;;;;12.18;8.23;;;;;;;16.50;82.82;95039.97;1787007;80;21485;-58
2021/08/17 03:43:45;;;;;;;9.75;7.50;;;;;;;16.51;82.47;95023.07;1787348;80;20999;-59
2021/08/17 03:46:12;;;;;;;12.43;9.03;;;;;;;16.50;82.94;95032.84;1786866;80;21074;-59
2021/08/17 03:48:38;;;;;;;10.68;9.08;;;;;;;16.48;82.30;95033.85;1787306;80;21011;-59
2021/08/17 03:51:05;;;;;;;11.73;8.60;;;;;;;16.40;82.26;95031.58;1786825;80;21058;-59
2021/08/17 03:53:31;;;;;;;12.58;8.05;;;;;;;16.46;82.31;95040.61;1787332;80;20998;-59
2021/08/17 03:55:57;;;;;;;15.30;7.62;;;;;;;16.51;82.50;95059.88;1787134;80;20991;-59
2021/08/17 03:58:24;;;;;;;21.57;7.97;;;;;;;16.55;81.24;95077.41;1787064;80;21014;-59
2021/08/17 04:00:50;;;;;;;18.77;8.18;;;;;;;16.68;81.04;95082.12;1753796;80;21031;-59
2021/08/17 04:03:17;;;;;;;16.52;7.92;;;;;;;16.83;81.38;95077.37;1787190;80;20959;-59
2021/08/17 04:05:44;;;;;;;13.90;7.37;;;;;;;16.91;81.11;95098.29;1787155;80;20959;-59
2021/08/17 04:08:11;;;;;;;18.77;7.45;;;;;;;17.00;80.24;95093.83;1787075;80;21106;-59
2021/08/17 04:10:39;;;;;;;12.55;7.92;;;;;;;17.13;80.96;95099.38;1787027;80;20987;-59
2021/08/17 04:13:06;;;;;;;11.20;7.20;;;;;;;17.20;81.14;95091.46;1787009;80;20951;-59
2021/08/17 04:15:32;;;;;;;12.45;7.35;;;;;;;17.20;81.14;95091.46;1787067;80;21083;-59
2021/08/17 04:17:59;;;;;;;14.10;7.40;;;;;;;17.42;81.42;95114.72;1787235;80;21014;-59
2021/08/17 04:20:25;;;;;;;9.80;7.37;;;;;;;17.49;81.50;95120.12;1786687;80;21015;-59
2021/08/17 04:22:52;;;;;;;13.10;8.08;;;;;;;17.52;81.91;95103.95;1787088;80;20971;-59
2021/08/17 04:25:18;;;;;;;20.30;12.70;;;;;;;17.52;81.91;95103.95;1787164;80;20999;-59
2021/08/17 04:27:45;;;;;;;13.98;7.72;;;;;;;17.66;81.44;95101.00;1786789;80;21051;-59
2021/08/17 04:30:13;;;;;;;10.88;7.25;;;;;;;17.85;81.45;95106.23;1787132;80;20999;-59
2021/08/17 04:32:39;;;;;;;10.05;6.67;;;;;;;18.02;81.38;95107.51;1787140;80;21452;-59
2021/08/17 04:35:08;;;;;;;18.23;10.60;;;;;;;18.12;81.46;95098.03;1786705;80;21023;-59
2021/08/17 04:37:34;;;;;;;11.28;6.95;;;;;;;18.20;81.59;95096.75;1787200;80;21457;-59
2021/08/17 04:40:01;;;;;;;10.88;6.85;;;;;;;18.34;81.49;95104.38;1753910;80;21003;-59
2021/08/17 04:42:28;;;;;;;10.98;7.87;;;;;;;18.52;81.55;95106.91;1787051;80;21034;-59
2021/08/17 04:44:54;;;;;;;12.18;8.10;;;;;;;18.69;81.52;95119.30;1787141;80;20979;-59
2021/08/17 04:47:21;;;;;;;11.90;6.47;;;;;;;18.89;81.96;95115.02;1786930;80;21110;-59
2021/08/17 04:49:47;;;;;;;10.63;7.72;;;;;;;19.09;81.83;95104.96;1786827;80;21011;-59
2021/08/17 04:52:14;;;;;;;13.90;8.30;;;;;;;19.23;81.44;95109.87;1787178;80;21026;-59
2021/08/17 04:54:40;;;;;;;17.80;9.15;;;;;;;19.42;80.80;95102.91;1786539;80;21011;-59
2021/08/17 04:57:07;;;;;;;13.58;7.72;;;;;;;19.55;79.98;95092.30;1786738;80;20975;-59
2021/08/17 04:59:33;;;;;;;9.00;5.87;;;;;;;19.73;80.42;95101.06;1787197;80;20967;-59
2021/08/17 05:02:00;;;;;;;7.58;6.47;;;;;;;19.83;80.88;95102.20;1787044;80;20991;-59
2021/08/17 05:04:26;;;;;;;10.50;5.95;;;;;;;19.86;80.82;95100.67;1787159;80;21453;-59
2021/08/17 05:06:53;;;;;;;10.65;6.65;;;;;;;19.76;81.07;95089.31;1786765;80;20991;-59
2021/08/17 05:09:19;;;;;;;11.97;7.58;;;;;;;19.75;81.26;95088.42;1787053;80;20991;-59
2021/08/17 05:11:46;;;;;;;13.50;8.83;;;;;;;19.78;80.84;95078.88;1786762;80;21066;-59
2021/08/17 05:14:12;;;;;;;11.00;6.87;;;;;;;19.81;81.31;95087.20;1787236;80;20975;-59
2021/08/17 05:16:39;;;;;;;15.08;7.65;;;;;;;19.80;81.06;95078.77;1786643;80;21094;-59
2021/08/17 05:19:05;;;;;;;11.28;7.30;;;;;;;19.74;80.58;95077.34;1787156;80;20995;-59
2021/08/17 05:21:32;;;;;;;10.08;7.33;;;;;;;19.76;80.71;95102.69;1787632;80;21015;-59
2021/08/17 05:23:58;;;;;;;10.72;6.80;;;;;;;19.72;80.79;95089.96;1795387;80;20971;-59
2021/08/17 05:26:25;;;;;;;11.60;7.67;;;;;;;19.73;80.78;95102.86;1795282;80;21793;-59
2021/08/17 05:28:52;;;;;;;8.93;6.75;;;;;;;19.71;80.78;95102.13;1795504;80;21452;-59
2021/08/17 05:31:19;;;;;;;9.83;6.87;;;;;;;19.67;80.70;95107.64;1795542;80;20994;-59
2021/08/17 05:33:45;;;;;;;10.95;6.85;;;;;;;19.62;80.54;95115.55;1795502;80;21481;-59
2021/08/17 05:36:12;;;;;;;7.58;6.20;;;;;;;19.69;81.12;95116.92;1795080;80;21053;-59
2021/08/17 05:38:39;;;;;;;8.30;7.20;;;;;;;19.81;80.78;95126.88;1795519;80;21368;-59
2021/08/17 05:41:05;;;;;;;12.75;8.30;;;;;;;19.91;81.04;95126.27;1795171;80;21476;-61
2021/08/17 05:43:32;;;;;;;11.20;9.20;;;;;;;20.02;80.85;95123.31;1795577;80;20991;-59
2021/08/17 05:46:03;;;;;;;14.20;8.05;;;;;;;20.14;80.38;95128.38;1795625;80;20975;-59
2021/08/17 05:48:26;;;;;;;8.05;6.85;;;;;;;20.23;80.44;95128.26;1795041;80;21033;-59
2021/08/17 05:50:53;;;;;;;12.28;6.60;;;;;;;20.33;80.91;95125.37;1795350;80;21010;-59
2021/08/17 05:53:19;;;;;;;13.25;6.67;;;;;;;20.28;80.72;95127.00;1795062;80;21035;-59
2021/08/17 05:55:46;;;;;;;12.13;7.83;;;;;;;20.27;81.28;95133.33;1795082;80;21582;-59
2021/08/17 05:58:13;;;;;;;7.87;7.08;;;;;;;20.44;81.25;95129.56;1794804;80;21505;-59
2021/08/17 06:00:39;;;;;;;8.28;6.70;;;;;;;20.62;81.51;95130.22;1795202;80;21046;-59
2021/08/17 06:03:06;;;;;;;7.65;6.95;;;;;;;20.74;81.46;95125.39;1795560;80;20971;-59
2021/08/17 06:05:32;;;;;;;14.18;8.45;;;;;;;20.95;81.65;95128.45;1795420;80;20998;-59
2021/08/17 06:07:59;;;;;;;15.08;8.13;;;;;;;21.23;81.75;95119.89;1795439;80;20994;-59
2021/08/17 06:10:25;;;;;;;20.08;8.30;;;;;;;21.54;80.86;95125.86;1795475;80;20990;-59
2021/08/17 06:12:52;;;;;;;11.65;8.40;;;;;;;21.75;80.12;95118.15;1795157;80;21019;-59
2021/08/17 06:15:19;;;;;;;13.55;7.90;;;;;;;21.96;79.75;95123.82;1795435;80;21038;-58
2021/08/17 06:17:47;;;;;;;12.78;9.00;;;;;;;22.10;77.67;95129.54;1795423;80;21017;-59
2021/08/17 06:20:14;;;;;;;13.25;8.68;;;;;;;22.15;77.39;95124.23;1795366;80;20975;-59
2021/08/17 06:22:41;;;;;;;25.27;9.53;;;;;;;22.30;77.03;95127.68;1795358;80;21495;-59
2021/08/17 06:25:09;;;;;;;13.38;9.08;;;;;;;22.44;74.82;95119.45;1795673;80;21000;-59
2021/08/17 06:27:37;;;;;;;15.63;9.13;;;;;;;22.60;75.15;95119.66;1795387;80;20995;-59
2021/08/17 06:30:06;;;;;;;15.55;8.78;;;;;;;22.70;74.06;95109.95;1795446;80;21006;-58
2021/08/17 06:32:34;;;;;;;18.17;8.25;;;;;;;22.83;72.04;95110.77;1795535;80;20997;-59
2021/08/17 06:35:01;;;;;;;15.72;8.05;;;;;;;22.97;69.16;95110.22;1795485;80;21010;-59
2021/08/17 06:37:29;;;;;;;11.48;8.05;;;;;;;23.09;67.41;95089.99;1795482;80;21002;-59
2021/08/17 06:39:56;;;;;;;10.18;7.97;;;;;;;23.20;65.47;95095.05;1795560;80;21524;-59
2021/08/17 06:42:23;;;;;;;12.07;8.33;;;;;;;23.27;65.80;95094.95;1795416;80;20959;-59
2021/08/17 06:44:50;;;;;;;11.80;8.53;;;;;;;23.40;66.11;95099.75;1795245;80;21035;-59
2021/08/17 06:47:16;;;;;;;14.30;8.13;;;;;;;23.52;65.71;95094.77;1795574;80;21429;-58
2021/08/17 06:49:43;;;;;;;10.60;8.65;;;;;;;23.63;65.53;95088.53;1795676;80;21001;-59
2021/08/17 06:52:10;;;;;;;11.50;7.62;;;;;;;23.73;63.60;95092.25;1795249;80;21105;-59
2021/08/17 06:54:36;;;;;;;12.28;8.20;;;;;;;23.81;64.49;95103.77;1795127;80;21492;-59
2021/08/17 06:57:03;;;;;;;12.47;8.50;;;;;;;23.89;62.65;95100.46;1795091;80;21026;-59
2021/08/17 06:59:30;;;;;;;10.32;8.28;;;;;;;23.96;64.08;95107.09;1795144;80;21536;-59
2021/08/17 07:01:57;;;;;;;12.53;8.68;;;;;;;23.97;61.44;95111.02;1795458;80;20971;-58
2021/08/17 07:04:23;;;;;;;11.15;7.95;;;;;;;24.07;61.38;95105.77;1795428;80;21025;-59
2021/08/17 07:06:50;;;;;;;11.60;8.10;;;;;;;24.18;62.74;95113.83;1795606;80;20971;-59
2021/08/17 07:09:16;;;;;;;10.78;8.05;;;;;;;24.31;62.19;95113.70;1795213;80;21079;-58
2021/08/17 07:11:43;;;;;;;13.68;8.13;;;;;;;24.42;61.34;95103.41;1795564;80;20946;-60
2021/08/17 07:14:09;;;;;;;9.83;7.58;;;;;;;24.52;61.21;95100.37;1795712;80;21010;-58
2021/08/17 07:16:37;;;;;;;10.75;7.87;;;;;;;24.65;61.24;95098.02;1795337;80;21054;-58
2021/08/17 07:19:04;;;;;;;9.63;8.60;;;;;;;24.77;60.31;95103.25;1795543;80;21057;-59
2021/08/17 07:21:31;;;;;;;21.42;9.45;;;;;;;24.88;59.19;95096.95;1795539;80;21012;-58
2021/08/17 07:23:57;;;;;;;13.25;8.60;;;;;;;25.00;57.69;95100.48;1788121;80;21015;-59
2021/08/17 07:26:24;;;;;;;11.22;8.35;;;;;;;25.12;54.91;95095.38;1787336;80;20971;-59
2021/08/17 07:28:51;;;;;;;16.02;8.40;;;;;;;25.24;56.03;95089.48;1786873;80;20979;-59
2021/08/17 07:31:17;;;;;;;13.62;8.80;;;;;;;25.39;55.80;95087.31;1787238;80;21472;-59
2021/08/17 07:33:44;;;;;;;9.13;8.00;;;;;;;25.51;56.17;95095.73;1786928;80;21043;-59
2021/08/17 07:36:11;;;;;;;13.28;8.80;;;;;;;25.61;55.04;95089.89;1786985;80;21461;-59
2021/08/17 07:38:37;;;;;;;14.75;8.13;;;;;;;25.66;51.32;95081.39;1787084;80;21078;-59
2021/08/17 07:41:04;;;;;;;20.20;8.45;;;;;;;25.79;53.02;95090.64;1787222;80;21022;-59
2021/08/17 07:43:30;;;;;;;13.13;8.55;;;;;;;25.90;52.92;95086.52;1786864;80;20979;-59
2021/08/17 07:45:58;;;;;;;12.37;8.63;;;;;;;26.04;53.47;95090.73;1787193;80;21457;-60
2021/08/17 07:48:24;;;;;;;12.78;8.35;;;;;;;26.18;54.35;95090.34;1786876;80;20983;-60
2021/08/17 07:50:52;;;;;;;9.65;7.37;;;;;;;26.30;51.33;95085.20;1786953;80;21003;-59
2021/08/17 07:53:18;;;;;;;12.55;7.95;;;;;;;26.39;50.47;95096.22;1787065;80;21520;-59
2021/08/17 07:55:45;;;;;;;9.98;8.18;;;;;;;26.48;51.39;95094.02;1787428;80;21014;-59
2021/08/17 07:58:13;;;;;;;11.38;8.35;;;;;;;26.58;51.55;95079.20;1786999;80;21496;-59
2021/08/17 08:00:39;;;;;;;11.80;7.60;;;;;;;26.65;50.46;95085.78;1787099;80;21070;-59
2021/08/17 08:03:05;;;;;;;14.68;8.33;;;;;;;26.76;50.50;95091.94;1787274;80;21015;-59
2021/08/17 08:05:32;;;;;;;13.93;8.55;;;;;;;26.89;48.78;95099.80;1787185;80;21449;-58
2021/08/17 08:07:59;;;;;;;11.10;8.33;;;;;;;26.99;49.50;95094.39;1786827;80;21042;-59
2021/08/17 08:10:25;;;;;;;11.38;8.35;;;;;;;27.14;48.64;95090.27;1787045;80;21074;-59
2021/08/17 08:12:52;;;;;;;10.18;8.10;;;;;;;27.34;50.18;95092.98;1786683;80;21047;-60
2021/08/17 08:15:18;;;;;;;15.32;8.55;;;;;;;27.55;49.43;95093.70;1787074;80;20996;-59
2021/08/17 08:17:45;;;;;;;10.80;8.10;;;;;;;27.73;49.26;95099.74;1786846;80;20983;-59
2021/08/17 08:20:13;;;;;;;9.83;7.65;;;;;;;27.92;48.40;95098.39;1787301;80;20999;-59
2021/08/17 08:22:40;;;;;;;11.12;8.15;;;;;;;27.88;46.82;95094.25;1787000;80;21046;-59
2021/08/17 08:25:08;;;;;;;12.18;8.05;;;;;;;27.81;46.38;95103.92;1787039;80;20983;-59
2021/08/17 08:27:36;;;;;;;10.95;7.28;;;;;;;27.86;47.29;95107.09;1787075;80;21473;-59
2021/08/17 08:30:05;;;;;;;13.05;7.60;;;;;;;27.95;44.43;95107.58;1787281;80;20988;-59
2021/08/17 08:32:32;;;;;;;11.53;7.53;;;;;;;28.30;44.70;95118.25;1787009;80;21011;-59
2021/08/17 08:34:58;;;;;;;8.95;7.45;;;;;;;28.65;46.35;95121.63;1787199;80;21453;-59
2021/08/17 08:37:25;;;;;;;10.98;7.60;;;;;;;28.95;46.93;95118.73;1787163;80;20986;-59
2021/08/17 08:39:53;;;;;;;9.88;7.28;;;;;;;29.26;45.56;95122.00;1787098;80;20999;-59
2021/08/17 08:42:22;;;;;;;13.10;8.03;;;;;;;29.54;43.14;95112.73;1787099;80;21042;-60
2021/08/17 08:44:49;;;;;;;10.05;7.62;;;;;;;29.79;43.95;95119.78;1787105;80;21485;-59
2021/08/17 08:47:18;;;;;;;12.55;7.75;;;;;;;29.99;43.33;95124.52;1787005;80;21007;-59
2021/08/17 08:49:49;;;;;;;12.43;7.47;;;;;;;30.03;42.60;95126.41;1786945;80;21039;-60
2021/08/17 08:52:17;;;;;;;8.23;7.42;;;;;;;30.00;43.49;95127.58;1787025;80;21038;-59
2021/08/17 08:54:44;;;;;;;9.38;7.50;;;;;;;29.79;44.11;95137.45;1787096;80;21445;-60
2021/08/17 08:57:11;;;;;;;10.20;8.30;;;;;;;29.48;42.57;95138.32;1787104;80;20995;-59
2021/08/17 08:59:39;;;;;;;13.78;7.87;;;;;;;29.12;44.01;95154.09;1786930;80;21011;-61
2021/08/17 09:02:10;;;;;;;12.33;7.37;;;;;;;28.82;43.54;95157.95;1787164;80;21007;-59
2021/08/17 09:04:41;;;;;;;13.60;7.65;;;;;;;28.53;42.28;95162.17;1787196;80;21493;-60
2021/08/17 09:07:08;;;;;;;11.22;7.42;;;;;;;28.25;45.51;95163.96;1786704;80;21042;-59
2021/08/17 09:09:34;;;;;;;16.30;8.25;;;;;;;27.97;46.74;95172.48;1787182;80;21010;-59
2021/08/17 09:12:01;;;;;;;36.77;18.05;;;;;;;27.76;47.54;95169.92;1787078;80;20986;-59
2021/08/17 09:14:34;;;;;;;15.70;10.08;;;;;;;27.49;43.50;95183.67;1786563;80;21050;-59
2021/08/17 09:17:06;;;;;;;;;;;;;;;27.29;47.54;95186.02;1789770;80;20994;-59
2021/08/17 09:19:40;;;;;;;38.28;15.15;;;;;;;27.12;45.05;95188.39;1755917;81;20106;-59
2021/08/17 09:22:21;;;;;;;28.87;12.88;;;;;;;26.93;42.99;95195.11;1755931;82;21045;-59
2021/08/17 09:24:53;;;;;;;19.02;9.20;;;;;;;26.82;44.54;95198.79;1795124;80;21529;-59
2021/08/17 09:27:24;;;;;;;17.42;9.65;;;;;;;26.69;44.40;95211.20;1795545;80;21512;-59
2021/08/17 09:30:08;;;;;;;21.60;8.88;;;;;;;26.57;45.61;95212.79;1795328;80;21512;-59
2021/08/17 09:49:48;;;;;;;25.50;11.53;;;;;;;26.95;48.13;95259.45;1860242;77;22662;-58
2021/08/17 09:52:15;;;;;;;28.73;11.65;;;;;;;26.77;49.25;95268.72;1832702;78;21027;-59
2021/08/17 09:54:46;;;;;;;22.60;11.08;;;;;;;26.75;49.65;95274.75;1832370;78;21004;-59
2021/08/17 09:57:14;;;;;;;24.85;10.10;;;;;;;26.68;50.13;95288.45;1832227;78;21046;-59
2021/08/17 09:59:46;;;;;;;28.55;10.55;;;;;;;26.65;50.58;95286.88;1832045;78;21016;-59
2021/08/17 10:02:13;;;;;;;24.12;10.08;;;;;;;26.96;50.67;95295.00;1832517;78;20996;-59
2021/08/17 10:04:45;;;;;;;24.30;9.03;;;;;;;27.16;49.86;95293.23;1832262;78;21035;-59
2021/08/17 10:07:11;;;;;;;22.65;9.18;;;;;;;27.15;49.82;95301.86;1832033;78;21012;-59
2021/08/17 10:09:38;;;;;;;28.85;9.90;;;;;;;27.12;50.17;95300.78;1832071;78;21064;-59
2021/08/17 10:12:07;;;;;;;28.65;9.20;;;;;;;27.11;50.22;95308.53;1832373;78;20996;-58
2021/08/17 10:14:35;;;;;;;16.75;8.33;;;;;;;27.11;50.51;95311.23;1832162;78;20956;-59
2021/08/17 10:17:03;;;;;;;25.92;9.28;;;;;;;27.00;50.93;95315.41;1832098;78;21011;-59
2021/08/17 10:19:34;;;;;;;24.85;9.50;;;;;;;26.69;50.99;95329.44;1832536;78;20991;-59
2021/08/17 10:22:05;;;;;;;18.57;8.98;;;;;;;26.59;52.06;95331.23;1832305;78;21008;-59
2021/08/17 10:24:41;;;;;;;20.75;9.85;;;;;;;26.47;52.19;95340.71;1801041;78;20987;-59
2021/08/17 10:27:28;;;;;;;16.25;8.43;;;;;;;26.37;52.34;95344.34;1832339;78;21000;-59
2021/08/17 10:30:21;;;;;;;16.20;8.63;;;;;;;26.36;52.63;95347.55;1800012;78;21027;-59
2021/08/17 10:32:56;;;;;;;15.38;9.20;;;;;;;26.37;53.31;95332.17;1832420;78;21012;-59
2021/08/17 10:35:49;;;;;;;16.80;8.58;;;;;;;26.42;52.99;95330.78;1832301;78;21488;-58
2021/08/17 10:38:23;;;;;;;13.38;7.60;;;;;;;26.47;53.34;95312.81;1831959;78;21496;-59
2021/08/17 10:40:55;;;;;;;21.62;7.92;;;;;;;26.48;53.49;95298.28;1832506;78;20964;-59
2021/08/17 10:43:33;;;;;;;16.50;8.40;;;;;;;26.44;53.68;95288.73;1832438;78;21011;-59
2021/08/17 10:46:04;;;;;;;30.08;9.00;;;;;;;26.36;53.63;95281.28;1832123;78;20977;-58
2021/08/17 10:48:54;;;;;;;14.93;8.60;;;;;;;26.20;53.57;95276.31;1833688;78;21532;-59
2021/08/17 10:51:32;;;;;;;13.93;8.30;;;;;;;26.02;53.92;95258.47;1835398;78;20968;-59
2021/08/17 10:54:10;;;;;;;15.78;9.45;;;;;;;25.82;54.16;95226.34;1835122;78;21031;-58
2021/08/17 10:56:38;;;;;;;16.42;8.38;;;;;;;25.65;54.84;95244.00;1835433;78;21477;-59
2021/08/17 10:59:07;;;;;;;12.70;7.87;;;;;;;25.41;55.85;95282.02;1835010;78;21504;-59
2021/08/17 11:01:39;;;;;;;11.33;8.23;;;;;;;25.26;56.04;95274.67;1835534;78;20999;-59
2021/08/17 11:04:19;;;;;;;16.85;8.33;;;;;;;25.12;56.49;95289.75;1835344;78;21011;-59
2021/08/17 11:06:55;;;;;;;11.63;7.92;;;;;;;24.98;57.29;95292.23;1835266;78;20956;-58
2021/08/17 11:09:34;;;;;;;18.15;9.15;;;;;;;24.67;58.99;95304.63;1835196;78;21465;-59
2021/08/17 11:12:03;;;;;;;15.18;8.80;;;;;;;24.45;60.27;95310.84;1834157;78;21023;-59
2021/08/17 11:14:33;;;;;;;17.55;8.70;;;;;;;24.16;61.87;95331.43;1835118;78;21536;-59
2021/08/17 11:17:06;;;;;;;10.03;8.33;;;;;;;24.06;61.43;95332.26;1834282;78;21508;-59
2021/08/17 11:19:37;;;;;;;12.15;8.58;;;;;;;24.03;61.91;95336.05;1835365;78;21019;-59
2021/08/17 11:22:07;;;;;;;11.75;7.83;;;;;;;23.97;61.59;95343.27;1835023;78;21461;-58
2021/08/17 11:24:39;;;;;;;10.70;7.58;;;;;;;23.92;61.40;95341.41;1807210;78;20975;-59
2021/08/17 11:27:14;;;;;;;10.88;7.65;;;;;;;24.02;61.32;95343.78;1835301;78;20984;-59
2021/08/17 11:29:53;;;;;;;9.40;8.03;;;;;;;24.22;61.36;95337.33;1834917;78;21491;-59
2021/08/17 11:32:40;;;;;;;11.35;8.58;;;;;;;24.55;60.61;95326.67;1835029;78;21063;-58
2021/08/17 11:35:17;;;;;;;16.50;8.33;;;;;;;24.81;59.63;95323.26;1835223;78;21047;-59
2021/08/17 11:37:47;;;;;;;15.98;8.28;;;;;;;24.79;59.35;95316.27;1835268;78;21015;-59
2021/08/17 11:40:22;;;;;;;11.38;8.38;;;;;;;24.82;58.85;95316.90;1835298;78;21011;-59
2021/08/17 11:42:51;;;;;;;16.25;8.78;;;;;;;24.91;59.03;95309.89;1834923;78;21059;-59
2021/08/17 11:45:27;;;;;;;14.85;8.23;;;;;;;24.99;58.26;95305.23;1835129;78;20991;-59
2021/08/17 11:47:57;;;;;;;19.82;8.48;;;;;;;25.26;58.08;95311.63;1834794;78;21003;-60